Terminal Aerodrome Forecast
Issued by NWS Tulsa, OK

Home | Current Version | Previous Version | Text Only | Print | Product List | Glossary On
Versions: 1 2 3 4 5 6 7 8 9 10 11 12 13 14 15 16 17
000
FTUS44 KTSA 092300
TAFFSM
TAF
KFSM 092328Z 1000/1024 21004KT P6SM FEW070 SCT250
     FM100500 07005KT P6SM SCT150
     FM101500 09007KT P6SM BKN250 PROB30 1018/1024 5SM -TSRA
      BKN050CB=

USA.gov is the U.S. government's official web portal to all federal, state and local government web resources and services.